sensor_id;sensor_type;location;lat;lon;timestamp;P1;durP1;ratioP1;P2;durP2;ratioP2
71296;SDS011;59082;50.658;4.608;2022-09-13T00:01:40;3.87;;;1.97;;
71296;SDS011;59082;50.658;4.608;2022-09-13T00:04:05;2.30;;;1.13;;
71296;SDS011;59082;50.658;4.608;2022-09-13T00:06:32;2.85;;;1.50;;
71296;SDS011;59082;50.658;4.608;2022-09-13T00:08:57;2.77;;;2.03;;
71296;SDS011;59082;50.658;4.608;2022-09-13T00:11:26;3.00;;;1.95;;
71296;SDS011;59082;50.658;4.608;2022-09-13T00:13:53;3.47;;;1.77;;
71296;SDS011;59082;50.658;4.608;2022-09-13T00:16:20;2.25;;;1.80;;
71296;SDS011;59082;50.658;4.608;2022-09-13T00:18:48;2.20;;;1.50;;
71296;SDS011;59082;50.658;4.608;2022-09-13T00:21:15;2.65;;;1.90;;
71296;SDS011;59082;50.658;4.608;2022-09-13T00:23:45;2.28;;;2.08;;
71296;SDS011;59082;50.658;4.608;2022-09-13T00:26:17;3.30;;;2.50;;
71296;SDS011;59082;50.658;4.608;2022-09-13T00:28:48;5.30;;;2.40;;
71296;SDS011;59082;50.658;4.608;2022-09-13T00:31:15;5.53;;;2.60;;
71296;SDS011;59082;50.658;4.608;2022-09-13T00:33:41;5.13;;;2.70;;
71296;SDS011;59082;50.658;4.608;2022-09-13T00:36:08;3.13;;;2.10;;
71296;SDS011;59082;50.658;4.608;2022-09-13T00:38:36;5.45;;;3.08;;
71296;SDS011;59082;50.658;4.608;2022-09-13T00:41:03;3.67;;;2.03;;
71296;SDS011;59082;50.658;4.608;2022-09-13T00:43:41;2.70;;;1.85;;
71296;SDS011;59082;50.658;4.608;2022-09-13T00:46:38;2.27;;;2.00;;
71296;SDS011;59082;50.658;4.608;2022-09-13T00:51:41;5.57;;;1.90;;
71296;SDS011;59082;50.658;4.608;2022-09-13T00:54:11;5.00;;;2.15;;
71296;SDS011;59082;50.658;4.608;2022-09-13T00:56:40;2.67;;;1.98;;
71296;SDS011;59082;50.658;4.608;2022-09-13T00:59:14;3.70;;;1.97;;
71296;SDS011;59082;50.658;4.608;2022-09-13T01:01:50;2.70;;;1.90;;
71296;SDS011;59082;50.658;4.608;2022-09-13T01:04:19;2.92;;;1.95;;
71296;SDS011;59082;50.658;4.608;2022-09-13T01:06:46;2.03;;;1.77;;
71296;SDS011;59082;50.658;4.608;2022-09-13T01:09:15;3.35;;;2.20;;
71296;SDS011;59082;50.658;4.608;2022-09-13T01:14:17;2.35;;;1.83;;
71296;SDS011;59082;50.658;4.608;2022-09-13T01:16:44;3.67;;;1.70;;
71296;SDS011;59082;50.658;4.608;2022-09-13T01:19:09;4.13;;;1.80;;
71296;SDS011;59082;50.658;4.608;2022-09-13T01:30:19;4.53;;;2.00;;
71296;SDS011;59082;50.658;4.608;2022-09-13T01:32:51;3.93;;;1.97;;
71296;SDS011;59082;50.658;4.608;2022-09-13T01:38:35;7.05;;;2.20;;
71296;SDS011;59082;50.658;4.608;2022-09-13T01:47:02;3.43;;;2.93;;
71296;SDS011;59082;50.658;4.608;2022-09-13T01:54:33;5.17;;;1.97;;
71296;SDS011;59082;50.658;4.608;2022-09-13T01:57:15;4.50;;;2.65;;
71296;SDS011;59082;50.658;4.608;2022-09-13T02:02:17;3.80;;;1.90;;
71296;SDS011;59082;50.658;4.608;2022-09-13T02:05:00;4.35;;;1.70;;
71296;SDS011;59082;50.658;4.608;2022-09-13T02:07:31;3.72;;;1.83;;
71296;SDS011;59082;50.658;4.608;2022-09-13T02:10:05;4.55;;;1.67;;
71296;SDS011;59082;50.658;4.608;2022-09-13T02:12:35;5.40;;;2.40;;
71296;SDS011;59082;50.658;4.608;2022-09-13T02:15:16;6.07;;;1.63;;
71296;SDS011;59082;50.658;4.608;2022-09-13T02:17:46;4.45;;;2.00;;
71296;SDS011;59082;50.658;4.608;2022-09-13T02:20:20;8.23;;;2.17;;
71296;SDS011;59082;50.658;4.608;2022-09-13T02:22:53;3.17;;;1.42;;
71296;SDS011;59082;50.658;4.608;2022-09-13T02:25:22;4.60;;;1.67;;
71296;SDS011;59082;50.658;4.608;2022-09-13T02:27:51;2.85;;;2.30;;
71296;SDS011;59082;50.658;4.608;2022-09-13T02:30:23;2.85;;;1.55;;
71296;SDS011;59082;50.658;4.608;2022-09-13T02:32:55;4.82;;;1.85;;
71296;SDS011;59082;50.658;4.608;2022-09-13T02:35:30;3.42;;;1.60;;
71296;SDS011;59082;50.658;4.608;2022-09-13T02:38:01;2.97;;;1.53;;
71296;SDS011;59082;50.658;4.608;2022-09-13T02:40:31;3.40;;;1.90;;
71296;SDS011;59082;50.658;4.608;2022-09-13T02:43:06;2.53;;;1.88;;
71296;SDS011;59082;50.658;4.608;2022-09-13T02:45:46;3.83;;;1.50;;
71296;SDS011;59082;50.658;4.608;2022-09-13T02:48:31;3.03;;;1.30;;
71296;SDS011;59082;50.658;4.608;2022-09-13T02:56:33;3.47;;;1.98;;
71296;SDS011;59082;50.658;4.608;2022-09-13T03:01:43;4.55;;;1.80;;
71296;SDS011;59082;50.658;4.608;2022-09-13T03:04:13;3.17;;;1.43;;
71296;SDS011;59082;50.658;4.608;2022-09-13T03:06:39;5.80;;;1.88;;
71296;SDS011;59082;50.658;4.608;2022-09-13T03:09:06;6.10;;;1.95;;
71296;SDS011;59082;50.658;4.608;2022-09-13T03:23:17;3.03;;;1.70;;
71296;SDS011;59082;50.658;4.608;2022-09-13T03:41:59;4.53;;;1.73;;
71296;SDS011;59082;50.658;4.608;2022-09-13T03:44:31;2.85;;;1.48;;
71296;SDS011;59082;50.658;4.608;2022-09-13T03:47:00;2.63;;;2.03;;
71296;SDS011;59082;50.658;4.608;2022-09-13T03:49:28;4.32;;;1.75;;
71296;SDS011;59082;50.658;4.608;2022-09-13T03:51:54;4.22;;;2.08;;
71296;SDS011;59082;50.658;4.608;2022-09-13T03:54:26;2.57;;;1.80;;
71296;SDS011;59082;50.658;4.608;2022-09-13T03:59:46;2.67;;;1.83;;
71296;SDS011;59082;50.658;4.608;2022-09-13T04:02:14;3.50;;;1.40;;
71296;SDS011;59082;50.658;4.608;2022-09-13T04:04:41;6.35;;;1.75;;
71296;SDS011;59082;50.658;4.608;2022-09-13T04:07:08;3.33;;;1.53;;
71296;SDS011;59082;50.658;4.608;2022-09-13T04:09:35;4.93;;;1.75;;
71296;SDS011;59082;50.658;4.608;2022-09-13T04:12:01;2.70;;;2.10;;
71296;SDS011;59082;50.658;4.608;2022-09-13T04:14:26;4.30;;;1.87;;
71296;SDS011;59082;50.658;4.608;2022-09-13T04:16:55;4.40;;;1.85;;
71296;SDS011;59082;50.658;4.608;2022-09-13T04:19:22;4.65;;;1.90;;
71296;SDS011;59082;50.658;4.608;2022-09-13T04:21:52;3.07;;;1.90;;
71296;SDS011;59082;50.658;4.608;2022-09-13T04:24:18;4.80;;;1.40;;
71296;SDS011;59082;50.658;4.608;2022-09-13T04:26:48;3.28;;;1.30;;
71296;SDS011;59082;50.658;4.608;2022-09-13T04:29:21;2.88;;;1.98;;
71296;SDS011;59082;50.658;4.608;2022-09-13T04:31:48;4.70;;;2.55;;
71296;SDS011;59082;50.658;4.608;2022-09-13T04:34:16;3.77;;;2.37;;
71296;SDS011;59082;50.658;4.608;2022-09-13T04:36:43;6.03;;;1.75;;
71296;SDS011;59082;50.658;4.608;2022-09-13T04:39:10;4.47;;;2.00;;
71296;SDS011;59082;50.658;4.608;2022-09-13T04:41:38;3.25;;;1.90;;
71296;SDS011;59082;50.658;4.608;2022-09-13T04:44:05;5.18;;;1.48;;
71296;SDS011;59082;50.658;4.608;2022-09-13T04:46:30;5.13;;;2.30;;
71296;SDS011;59082;50.658;4.608;2022-09-13T04:48:56;4.60;;;1.80;;
71296;SDS011;59082;50.658;4.608;2022-09-13T04:51:21;4.65;;;2.08;;
71296;SDS011;59082;50.658;4.608;2022-09-13T04:53:54;4.07;;;1.77;;
71296;SDS011;59082;50.658;4.608;2022-09-13T04:56:20;3.15;;;2.20;;
71296;SDS011;59082;50.658;4.608;2022-09-13T04:58:47;7.43;;;1.90;;
71296;SDS011;59082;50.658;4.608;2022-09-13T05:01:15;2.40;;;1.70;;
71296;SDS011;59082;50.658;4.608;2022-09-13T05:03:41;4.57;;;2.13;;
71296;SDS011;59082;50.658;4.608;2022-09-13T05:06:08;3.78;;;1.80;;
71296;SDS011;59082;50.658;4.608;2022-09-13T05:08:37;3.38;;;1.73;;
71296;SDS011;59082;50.658;4.608;2022-09-13T05:11:03;4.87;;;1.90;;
71296;SDS011;59082;50.658;4.608;2022-09-13T05:13:30;6.43;;;1.92;;
71296;SDS011;59082;50.658;4.608;2022-09-13T05:15:59;4.18;;;1.90;;
71296;SDS011;59082;50.658;4.608;2022-09-13T05:18:26;3.28;;;2.05;;
71296;SDS011;59082;50.658;4.608;2022-09-13T05:20:57;5.43;;;2.15;;
71296;SDS011;59082;50.658;4.608;2022-09-13T05:23:26;5.00;;;1.77;;
71296;SDS011;59082;50.658;4.608;2022-09-13T05:25:57;3.10;;;2.03;;
71296;SDS011;59082;50.658;4.608;2022-09-13T05:28:29;7.45;;;2.40;;
71296;SDS011;59082;50.658;4.608;2022-09-13T05:30:57;8.55;;;3.53;;
71296;SDS011;59082;50.658;4.608;2022-09-13T05:33:23;9.85;;;2.78;;
71296;SDS011;59082;50.658;4.608;2022-09-13T05:35:50;7.50;;;2.90;;
71296;SDS011;59082;50.658;4.608;2022-09-13T05:38:16;5.65;;;2.30;;
71296;SDS011;59082;50.658;4.608;2022-09-13T05:40:41;4.80;;;2.10;;
71296;SDS011;59082;50.658;4.608;2022-09-13T05:43:07;7.47;;;2.67;;
71296;SDS011;59082;50.658;4.608;2022-09-13T05:45:33;7.82;;;2.67;;
71296;SDS011;59082;50.658;4.608;2022-09-13T05:47:58;9.50;;;2.67;;
71296;SDS011;59082;50.658;4.608;2022-09-13T05:50:24;13.50;;;2.90;;
71296;SDS011;59082;50.658;4.608;2022-09-13T05:52:53;5.87;;;2.80;;
71296;SDS011;59082;50.658;4.608;2022-09-13T05:55:18;9.40;;;3.03;;
71296;SDS011;59082;50.658;4.608;2022-09-13T05:57:45;8.30;;;2.70;;
71296;SDS011;59082;50.658;4.608;2022-09-13T06:00:11;3.70;;;1.90;;
71296;SDS011;59082;50.658;4.608;2022-09-13T06:02:37;6.53;;;2.65;;
71296;SDS011;59082;50.658;4.608;2022-09-13T06:05:03;4.40;;;2.13;;
71296;SDS011;59082;50.658;4.608;2022-09-13T06:07:28;5.47;;;2.83;;
71296;SDS011;59082;50.658;4.608;2022-09-13T06:09:54;5.27;;;2.53;;
71296;SDS011;59082;50.658;4.608;2022-09-13T06:12:20;4.32;;;2.00;;
71296;SDS011;59082;50.658;4.608;2022-09-13T06:14:45;4.83;;;2.80;;
71296;SDS011;59082;50.658;4.608;2022-09-13T06:17:11;5.37;;;2.63;;
71296;SDS011;59082;50.658;4.608;2022-09-13T06:19:36;3.58;;;2.55;;
71296;SDS011;59082;50.658;4.608;2022-09-13T06:22:01;4.13;;;2.13;;
71296;SDS011;59082;50.658;4.608;2022-09-13T06:24:27;5.00;;;2.13;;
71296;SDS011;59082;50.658;4.608;2022-09-13T06:26:52;5.40;;;2.93;;
71296;SDS011;59082;50.658;4.608;2022-09-13T06:29:18;6.23;;;2.57;;
71296;SDS011;59082;50.658;4.608;2022-09-13T06:31:44;6.07;;;2.93;;
71296;SDS011;59082;50.658;4.608;2022-09-13T06:34:10;6.32;;;3.25;;
71296;SDS011;59082;50.658;4.608;2022-09-13T06:36:40;9.10;;;3.60;;
71296;SDS011;59082;50.658;4.608;2022-09-13T06:39:06;5.00;;;2.50;;
71296;SDS011;59082;50.658;4.608;2022-09-13T06:41:32;8.15;;;3.08;;
71296;SDS011;59082;50.658;4.608;2022-09-13T06:43:58;4.15;;;2.88;;
71296;SDS011;59082;50.658;4.608;2022-09-13T06:46:29;9.02;;;3.30;;
71296;SDS011;59082;50.658;4.608;2022-09-13T06:48:59;6.03;;;3.23;;
71296;SDS011;59082;50.658;4.608;2022-09-13T06:51:26;4.47;;;2.95;;
71296;SDS011;59082;50.658;4.608;2022-09-13T06:53:54;4.57;;;2.50;;
71296;SDS011;59082;50.658;4.608;2022-09-13T06:56:27;5.43;;;3.20;;
71296;SDS011;59082;50.658;4.608;2022-09-13T06:58:56;6.18;;;3.03;;
71296;SDS011;59082;50.658;4.608;2022-09-13T07:01:24;5.13;;;3.07;;
71296;SDS011;59082;50.658;4.608;2022-09-13T07:03:51;4.20;;;2.53;;
71296;SDS011;59082;50.658;4.608;2022-09-13T07:08:44;4.93;;;2.60;;
71296;SDS011;59082;50.658;4.608;2022-09-13T07:11:11;6.10;;;3.60;;
71296;SDS011;59082;50.658;4.608;2022-09-13T07:13:38;4.32;;;2.40;;
71296;SDS011;59082;50.658;4.608;2022-09-13T07:16:10;4.87;;;2.67;;
71296;SDS011;59082;50.658;4.608;2022-09-13T07:18:36;5.53;;;2.45;;
71296;SDS011;59082;50.658;4.608;2022-09-13T07:21:03;3.90;;;2.13;;
71296;SDS011;59082;50.658;4.608;2022-09-13T07:23:31;4.80;;;2.50;;
71296;SDS011;59082;50.658;4.608;2022-09-13T07:25:57;4.47;;;2.50;;
71296;SDS011;59082;50.658;4.608;2022-09-13T07:28:27;6.43;;;2.30;;
71296;SDS011;59082;50.658;4.608;2022-09-13T07:30:54;5.32;;;2.38;;
71296;SDS011;59082;50.658;4.608;2022-09-13T07:33:19;3.45;;;2.70;;
71296;SDS011;59082;50.658;4.608;2022-09-13T07:35:45;4.70;;;2.53;;
71296;SDS011;59082;50.658;4.608;2022-09-13T07:38:10;2.93;;;2.50;;
71296;SDS011;59082;50.658;4.608;2022-09-13T07:40:36;5.73;;;2.70;;
71296;SDS011;59082;50.658;4.608;2022-09-13T07:43:01;5.80;;;2.70;;
71296;SDS011;59082;50.658;4.608;2022-09-13T07:45:27;5.37;;;2.43;;
71296;SDS011;59082;50.658;4.608;2022-09-13T07:47:53;6.22;;;2.92;;
71296;SDS011;59082;50.658;4.608;2022-09-13T07:50:20;5.57;;;3.00;;
71296;SDS011;59082;50.658;4.608;2022-09-13T07:52:45;6.57;;;2.47;;
71296;SDS011;59082;50.658;4.608;2022-09-13T07:55:10;4.67;;;2.93;;
71296;SDS011;59082;50.658;4.608;2022-09-13T07:57:36;5.53;;;2.38;;
71296;SDS011;59082;50.658;4.608;2022-09-13T08:00:02;8.20;;;2.30;;
71296;SDS011;59082;50.658;4.608;2022-09-13T08:02:28;4.57;;;2.10;;
71296;SDS011;59082;50.658;4.608;2022-09-13T08:04:53;7.63;;;2.37;;
71296;SDS011;59082;50.658;4.608;2022-09-13T08:07:19;5.80;;;3.00;;
71296;SDS011;59082;50.658;4.608;2022-09-13T08:09:44;6.60;;;2.38;;
71296;SDS011;59082;50.658;4.608;2022-09-13T08:12:09;8.67;;;3.37;;
71296;SDS011;59082;50.658;4.608;2022-09-13T08:14:35;4.80;;;2.70;;
71296;SDS011;59082;50.658;4.608;2022-09-13T08:17:01;8.07;;;3.70;;
71296;SDS011;59082;50.658;4.608;2022-09-13T08:19:26;6.93;;;3.40;;
71296;SDS011;59082;50.658;4.608;2022-09-13T08:21:52;7.88;;;5.18;;
71296;SDS011;59082;50.658;4.608;2022-09-13T08:24:19;10.53;;;6.33;;
71296;SDS011;59082;50.658;4.608;2022-09-13T08:26:45;14.68;;;11.05;;
71296;SDS011;59082;50.658;4.608;2022-09-13T08:29:12;8.70;;;6.13;;
71296;SDS011;59082;50.658;4.608;2022-09-13T08:31:38;8.93;;;4.70;;
71296;SDS011;59082;50.658;4.608;2022-09-13T08:34:03;9.25;;;4.35;;
71296;SDS011;59082;50.658;4.608;2022-09-13T08:36:29;7.93;;;4.03;;
71296;SDS011;59082;50.658;4.608;2022-09-13T08:38:56;6.68;;;3.60;;
71296;SDS011;59082;50.658;4.608;2022-09-13T08:41:32;8.23;;;4.53;;
71296;SDS011;59082;50.658;4.608;2022-09-13T08:49:40;6.97;;;2.83;;
71296;SDS011;59082;50.658;4.608;2022-09-13T08:52:29;4.90;;;1.75;;
71296;SDS011;59082;50.658;4.608;2022-09-13T08:54:58;4.97;;;1.90;;
71296;SDS011;59082;50.658;4.608;2022-09-13T08:57:38;6.60;;;2.20;;
71296;SDS011;59082;50.658;4.608;2022-09-13T09:00:24;3.25;;;2.05;;
71296;SDS011;59082;50.658;4.608;2022-09-13T09:05:46;3.78;;;1.98;;
71296;SDS011;59082;50.658;4.608;2022-09-13T09:08:23;4.47;;;2.00;;
71296;SDS011;59082;50.658;4.608;2022-09-13T09:10:56;6.05;;;1.75;;
71296;SDS011;59082;50.658;4.608;2022-09-13T09:13:30;4.13;;;1.20;;
71296;SDS011;59082;50.658;4.608;2022-09-13T09:16:45;4.38;;;1.58;;
71296;SDS011;59082;50.658;4.608;2022-09-13T09:19:00;4.03;;;1.48;;
71296;SDS011;59082;50.658;4.608;2022-09-13T09:21:34;6.90;;;2.00;;
71296;SDS011;59082;50.658;4.608;2022-09-13T09:24:00;6.82;;;1.65;;
71296;SDS011;59082;50.658;4.608;2022-09-13T09:26:28;5.78;;;1.63;;
71296;SDS011;59082;50.658;4.608;2022-09-13T09:28:55;6.22;;;1.50;;
71296;SDS011;59082;50.658;4.608;2022-09-13T09:37:00;6.57;;;1.90;;
71296;SDS011;59082;50.658;4.608;2022-09-13T09:39:38;4.47;;;1.98;;
71296;SDS011;59082;50.658;4.608;2022-09-13T09:42:14;4.75;;;1.70;;
71296;SDS011;59082;50.658;4.608;2022-09-13T09:44:47;4.88;;;1.33;;
71296;SDS011;59082;50.658;4.608;2022-09-13T09:47:17;3.40;;;1.77;;
71296;SDS011;59082;50.658;4.608;2022-09-13T09:49:50;6.25;;;1.60;;
71296;SDS011;59082;50.658;4.608;2022-09-13T09:52:37;4.68;;;1.70;;
71296;SDS011;59082;50.658;4.608;2022-09-13T09:58:04;3.50;;;1.17;;
71296;SDS011;59082;50.658;4.608;2022-09-13T10:00:33;2.50;;;0.90;;
71296;SDS011;59082;50.658;4.608;2022-09-13T10:03:07;2.35;;;1.35;;
71296;SDS011;59082;50.658;4.608;2022-09-13T10:05:42;3.05;;;1.02;;
71296;SDS011;59082;50.658;4.608;2022-09-13T10:08:20;3.38;;;1.25;;
71296;SDS011;59082;50.658;4.608;2022-09-13T10:10:53;4.33;;;1.20;;
71296;SDS011;59082;50.658;4.608;2022-09-13T10:13:21;4.07;;;1.00;;
71296;SDS011;59082;50.658;4.608;2022-09-13T10:15:52;5.90;;;1.23;;
71296;SDS011;59082;50.658;4.608;2022-09-13T10:18:21;3.33;;;0.73;;
71296;SDS011;59082;50.658;4.608;2022-09-13T10:21:00;3.33;;;0.98;;
71296;SDS011;59082;50.658;4.608;2022-09-13T10:23:31;4.23;;;0.83;;
71296;SDS011;59082;50.658;4.608;2022-09-13T10:26:05;2.40;;;0.80;;
71296;SDS011;59082;50.658;4.608;2022-09-13T10:31:11;3.75;;;1.10;;
71296;SDS011;59082;50.658;4.608;2022-09-13T10:33:40;4.32;;;0.90;;
71296;SDS011;59082;50.658;4.608;2022-09-13T10:36:18;3.93;;;0.90;;
71296;SDS011;59082;50.658;4.608;2022-09-13T10:38:50;4.30;;;0.93;;
71296;SDS011;59082;50.658;4.608;2022-09-13T10:41:22;2.13;;;0.60;;
71296;SDS011;59082;50.658;4.608;2022-09-13T10:44:00;2.53;;;0.80;;
71296;SDS011;59082;50.658;4.608;2022-09-13T10:46:29;1.65;;;0.52;;
71296;SDS011;59082;50.658;4.608;2022-09-13T10:48:59;5.03;;;1.10;;
71296;SDS011;59082;50.658;4.608;2022-09-13T10:53:51;3.57;;;0.80;;
71296;SDS011;59082;50.658;4.608;2022-09-13T10:56:32;2.80;;;0.87;;
71296;SDS011;59082;50.658;4.608;2022-09-13T11:01:51;2.20;;;0.80;;
71296;SDS011;59082;50.658;4.608;2022-09-13T11:10:17;2.15;;;1.10;;
71296;SDS011;59082;50.658;4.608;2022-09-13T11:18:48;2.30;;;1.13;;
71296;SDS011;59082;50.658;4.608;2022-09-13T11:21:23;2.85;;;1.20;;
71296;SDS011;59082;50.658;4.608;2022-09-13T11:24:26;3.25;;;1.25;;
71296;SDS011;59082;50.658;4.608;2022-09-13T11:27:07;3.17;;;1.08;;
71296;SDS011;59082;50.658;4.608;2022-09-13T11:32:48;2.13;;;1.40;;
71296;SDS011;59082;50.658;4.608;2022-09-13T11:35:46;2.88;;;1.10;;
71296;SDS011;59082;50.658;4.608;2022-09-13T11:55:18;4.15;;;1.13;;
71296;SDS011;59082;50.658;4.608;2022-09-13T11:57:56;2.17;;;1.15;;
71296;SDS011;59082;50.658;4.608;2022-09-13T12:00:36;2.57;;;1.60;;
71296;SDS011;59082;50.658;4.608;2022-09-13T12:06:18;4.40;;;1.50;;
71296;SDS011;59082;50.658;4.608;2022-09-13T12:08:40;3.20;;;1.65;;
71296;SDS011;59082;50.658;4.608;2022-09-13T12:13:38;4.33;;;2.00;;
71296;SDS011;59082;50.658;4.608;2022-09-13T12:16:10;3.38;;;1.73;;
71296;SDS011;59082;50.658;4.608;2022-09-13T12:18:43;3.47;;;1.67;;
71296;SDS011;59082;50.658;4.608;2022-09-13T12:21:15;3.27;;;1.70;;
71296;SDS011;59082;50.658;4.608;2022-09-13T12:23:53;3.33;;;1.77;;
71296;SDS011;59082;50.658;4.608;2022-09-13T12:26:40;3.03;;;1.55;;
71296;SDS011;59082;50.658;4.608;2022-09-13T12:29:13;3.90;;;1.70;;
71296;SDS011;59082;50.658;4.608;2022-09-13T12:31:43;3.83;;;1.70;;
71296;SDS011;59082;50.658;4.608;2022-09-13T12:34:12;3.60;;;2.13;;
71296;SDS011;59082;50.658;4.608;2022-09-13T12:37:09;3.00;;;2.13;;
71296;SDS011;59082;50.658;4.608;2022-09-13T12:45:13;4.23;;;2.20;;
71296;SDS011;59082;50.658;4.608;2022-09-13T13:01:48;3.25;;;2.20;;
71296;SDS011;59082;50.658;4.608;2022-09-13T13:04:18;2.47;;;2.08;;
71296;SDS011;59082;50.658;4.608;2022-09-13T13:11:47;3.10;;;2.00;;
71296;SDS011;59082;50.658;4.608;2022-09-13T13:23:29;2.70;;;1.85;;
71296;SDS011;59082;50.658;4.608;2022-09-13T13:33:56;5.22;;;2.28;;
71296;SDS011;59082;50.658;4.608;2022-09-13T13:36:26;2.90;;;2.60;;
71296;SDS011;59082;50.658;4.608;2022-09-13T13:38:55;4.63;;;2.20;;
71296;SDS011;59082;50.658;4.608;2022-09-13T13:41:35;3.47;;;1.52;;
71296;SDS011;59082;50.658;4.608;2022-09-13T13:46:45;2.88;;;1.70;;
71296;SDS011;59082;50.658;4.608;2022-09-13T13:57:34;2.47;;;1.27;;
71296;SDS011;59082;50.658;4.608;2022-09-13T14:00:24;2.38;;;1.27;;
71296;SDS011;59082;50.658;4.608;2022-09-13T14:02:56;4.25;;;1.73;;
71296;SDS011;59082;50.658;4.608;2022-09-13T14:08:37;5.22;;;1.75;;
71296;SDS011;59082;50.658;4.608;2022-09-13T14:19:51;4.07;;;1.57;;
71296;SDS011;59082;50.658;4.608;2022-09-13T14:22:22;4.15;;;2.13;;
71296;SDS011;59082;50.658;4.608;2022-09-13T14:24:53;3.72;;;2.10;;
71296;SDS011;59082;50.658;4.608;2022-09-13T14:27:27;2.63;;;1.80;;
71296;SDS011;59082;50.658;4.608;2022-09-13T14:29:55;4.93;;;2.17;;
71296;SDS011;59082;50.658;4.608;2022-09-13T14:32:26;5.13;;;2.40;;
71296;SDS011;59082;50.658;4.608;2022-09-13T14:37:26;4.70;;;2.60;;
71296;SDS011;59082;50.658;4.608;2022-09-13T14:39:56;4.07;;;2.90;;
71296;SDS011;59082;50.658;4.608;2022-09-13T14:42:24;3.60;;;2.20;;
71296;SDS011;59082;50.658;4.608;2022-09-13T14:44:50;4.03;;;2.50;;
71296;SDS011;59082;50.658;4.608;2022-09-13T14:47:32;5.25;;;2.53;;
71296;SDS011;59082;50.658;4.608;2022-09-13T14:50:06;4.68;;;2.03;;
71296;SDS011;59082;50.658;4.608;2022-09-13T14:53:01;4.23;;;2.60;;
71296;SDS011;59082;50.658;4.608;2022-09-13T14:55:28;4.40;;;2.83;;
71296;SDS011;59082;50.658;4.608;2022-09-13T14:57:59;5.80;;;3.20;;
71296;SDS011;59082;50.658;4.608;2022-09-13T15:00:29;4.68;;;3.08;;
71296;SDS011;59082;50.658;4.608;2022-09-13T15:03:02;5.30;;;3.33;;
71296;SDS011;59082;50.658;4.608;2022-09-13T15:05:37;4.90;;;2.77;;
71296;SDS011;59082;50.658;4.608;2022-09-13T15:10:57;4.28;;;2.63;;
71296;SDS011;59082;50.658;4.608;2022-09-13T15:13:35;5.13;;;2.85;;
71296;SDS011;59082;50.658;4.608;2022-09-13T15:16:27;4.07;;;3.22;;
71296;SDS011;59082;50.658;4.608;2022-09-13T15:22:02;5.80;;;2.58;;
71296;SDS011;59082;50.658;4.608;2022-09-13T15:24:37;3.60;;;2.17;;
71296;SDS011;59082;50.658;4.608;2022-09-13T15:27:22;3.95;;;2.10;;
71296;SDS011;59082;50.658;4.608;2022-09-13T15:29:59;5.82;;;2.25;;
71296;SDS011;59082;50.658;4.608;2022-09-13T15:32:29;4.57;;;3.23;;
71296;SDS011;59082;50.658;4.608;2022-09-13T15:35:15;4.80;;;2.50;;
71296;SDS011;59082;50.658;4.608;2022-09-13T15:38:54;6.57;;;3.30;;
71296;SDS011;59082;50.658;4.608;2022-09-13T15:41:17;4.05;;;2.58;;
71296;SDS011;59082;50.658;4.608;2022-09-13T15:43:43;4.78;;;2.75;;
71296;SDS011;59082;50.658;4.608;2022-09-13T15:46:13;3.90;;;2.73;;
71296;SDS011;59082;50.658;4.608;2022-09-13T15:48:40;4.75;;;3.00;;
71296;SDS011;59082;50.658;4.608;2022-09-13T15:51:14;5.35;;;3.50;;
71296;SDS011;59082;50.658;4.608;2022-09-13T15:53:41;4.47;;;3.03;;
71296;SDS011;59082;50.658;4.608;2022-09-13T15:56:08;4.88;;;2.47;;
71296;SDS011;59082;50.658;4.608;2022-09-13T15:58:38;3.55;;;2.85;;
71296;SDS011;59082;50.658;4.608;2022-09-13T16:01:03;4.33;;;3.27;;
71296;SDS011;59082;50.658;4.608;2022-09-13T16:03:30;4.00;;;2.80;;
71296;SDS011;59082;50.658;4.608;2022-09-13T16:05:56;6.18;;;4.63;;
71296;SDS011;59082;50.658;4.608;2022-09-13T16:08:22;5.82;;;4.80;;
71296;SDS011;59082;50.658;4.608;2022-09-13T16:10:48;7.22;;;4.80;;
71296;SDS011;59082;50.658;4.608;2022-09-13T16:13:13;6.43;;;4.23;;
71296;SDS011;59082;50.658;4.608;2022-09-13T16:15:39;6.23;;;4.57;;
71296;SDS011;59082;50.658;4.608;2022-09-13T16:18:05;8.70;;;4.47;;
71296;SDS011;59082;50.658;4.608;2022-09-13T16:20:30;10.20;;;4.70;;
71296;SDS011;59082;50.658;4.608;2022-09-13T16:22:56;11.40;;;5.47;;
71296;SDS011;59082;50.658;4.608;2022-09-13T16:25:22;8.57;;;5.17;;
71296;SDS011;59082;50.658;4.608;2022-09-13T16:27:47;9.90;;;6.00;;
71296;SDS011;59082;50.658;4.608;2022-09-13T16:30:14;10.87;;;6.00;;
71296;SDS011;59082;50.658;4.608;2022-09-13T16:32:42;12.70;;;5.93;;
71296;SDS011;59082;50.658;4.608;2022-09-13T16:35:08;13.38;;;7.22;;
71296;SDS011;59082;50.658;4.608;2022-09-13T16:37:35;7.95;;;5.88;;
71296;SDS011;59082;50.658;4.608;2022-09-13T16:40:01;9.50;;;6.23;;
71296;SDS011;59082;50.658;4.608;2022-09-13T16:42:28;9.23;;;6.22;;
71296;SDS011;59082;50.658;4.608;2022-09-13T16:44:53;13.25;;;7.07;;
71296;SDS011;59082;50.658;4.608;2022-09-13T16:47:19;8.00;;;5.97;;
71296;SDS011;59082;50.658;4.608;2022-09-13T16:49:44;11.87;;;6.83;;
71296;SDS011;59082;50.658;4.608;2022-09-13T16:52:10;10.23;;;7.00;;
71296;SDS011;59082;50.658;4.608;2022-09-13T16:54:35;11.25;;;6.18;;
71296;SDS011;59082;50.658;4.608;2022-09-13T16:57:01;8.63;;;6.17;;
71296;SDS011;59082;50.658;4.608;2022-09-13T16:59:28;10.52;;;6.32;;
71296;SDS011;59082;50.658;4.608;2022-09-13T17:01:55;9.38;;;6.25;;
71296;SDS011;59082;50.658;4.608;2022-09-13T17:04:20;8.23;;;5.27;;
71296;SDS011;59082;50.658;4.608;2022-09-13T17:06:46;8.40;;;5.83;;
71296;SDS011;59082;50.658;4.608;2022-09-13T17:09:12;7.37;;;5.53;;
71296;SDS011;59082;50.658;4.608;2022-09-13T17:11:39;8.27;;;5.50;;
71296;SDS011;59082;50.658;4.608;2022-09-13T17:14:07;7.03;;;5.10;;
71296;SDS011;59082;50.658;4.608;2022-09-13T17:16:35;10.63;;;4.97;;
71296;SDS011;59082;50.658;4.608;2022-09-13T17:19:19;8.18;;;4.85;;
71296;SDS011;59082;50.658;4.608;2022-09-13T17:21:49;5.72;;;4.55;;
71296;SDS011;59082;50.658;4.608;2022-09-13T17:24:16;7.93;;;4.50;;
71296;SDS011;59082;50.658;4.608;2022-09-13T17:26:45;8.52;;;4.60;;
71296;SDS011;59082;50.658;4.608;2022-09-13T17:29:11;6.70;;;4.17;;
71296;SDS011;59082;50.658;4.608;2022-09-13T17:31:36;5.65;;;4.40;;
71296;SDS011;59082;50.658;4.608;2022-09-13T17:34:02;6.67;;;4.60;;
71296;SDS011;59082;50.658;4.608;2022-09-13T17:36:27;9.80;;;5.55;;
71296;SDS011;59082;50.658;4.608;2022-09-13T17:38:54;7.67;;;5.03;;
71296;SDS011;59082;50.658;4.608;2022-09-13T17:41:21;8.00;;;5.18;;
71296;SDS011;59082;50.658;4.608;2022-09-13T17:43:47;10.38;;;4.80;;
71296;SDS011;59082;50.658;4.608;2022-09-13T17:46:13;8.23;;;5.00;;
71296;SDS011;59082;50.658;4.608;2022-09-13T17:48:41;7.63;;;4.47;;
71296;SDS011;59082;50.658;4.608;2022-09-13T17:51:09;14.15;;;5.30;;
71296;SDS011;59082;50.658;4.608;2022-09-13T17:53:39;11.63;;;5.53;;
71296;SDS011;59082;50.658;4.608;2022-09-13T17:56:06;8.63;;;5.55;;
71296;SDS011;59082;50.658;4.608;2022-09-13T17:58:33;8.98;;;6.18;;
71296;SDS011;59082;50.658;4.608;2022-09-13T18:01:03;8.60;;;5.63;;
71296;SDS011;59082;50.658;4.608;2022-09-13T18:03:31;11.15;;;5.82;;
71296;SDS011;59082;50.658;4.608;2022-09-13T18:05:58;9.40;;;5.10;;
71296;SDS011;59082;50.658;4.608;2022-09-13T18:08:25;9.77;;;5.18;;
71296;SDS011;59082;50.658;4.608;2022-09-13T18:10:52;9.27;;;5.60;;
71296;SDS011;59082;50.658;4.608;2022-09-13T18:13:18;5.70;;;3.85;;
71296;SDS011;59082;50.658;4.608;2022-09-13T18:15:44;7.17;;;4.00;;
71296;SDS011;59082;50.658;4.608;2022-09-13T18:18:11;6.13;;;3.47;;
71296;SDS011;59082;50.658;4.608;2022-09-13T18:20:37;8.88;;;4.13;;
71296;SDS011;59082;50.658;4.608;2022-09-13T18:23:03;7.00;;;4.07;;
71296;SDS011;59082;50.658;4.608;2022-09-13T18:25:29;8.00;;;4.10;;
71296;SDS011;59082;50.658;4.608;2022-09-13T18:27:55;6.90;;;3.50;;
71296;SDS011;59082;50.658;4.608;2022-09-13T18:30:20;7.37;;;4.10;;
71296;SDS011;59082;50.658;4.608;2022-09-13T18:32:46;6.65;;;3.90;;